createdAt,value
2022-11-16T00:00:16.522Z,4.5
2022-11-16T00:01:16.477Z,4.5
2022-11-16T00:02:16.309Z,4
2022-11-16T00:03:16.319Z,4.5
2022-11-16T00:04:16.570Z,4.5
2022-11-16T00:05:16.378Z,4
2022-11-16T00:07:16.755Z,4.5
2022-11-16T00:08:14.834Z,4.6
2022-11-16T00:09:15.845Z,4
2022-11-16T00:10:16.160Z,4.6
2022-11-16T00:11:16.548Z,4.6
2022-11-16T00:12:16.708Z,4.6
2022-11-16T00:13:16.384Z,4.6
2022-11-16T00:14:15.792Z,4.6
2022-11-16T00:15:16.236Z,4.6
2022-11-16T00:16:16.574Z,4.6
2022-11-16T00:17:16.248Z,4.6
2022-11-16T00:18:16.524Z,4.6
2022-11-16T00:19:16.706Z,4.6
2022-11-16T00:20:16.011Z,4
2022-11-16T00:21:16.383Z,4
2022-11-16T00:22:16.788Z,4.6
2022-11-16T00:23:15.796Z,4.6
2022-11-16T00:24:16.265Z,4.6
2022-11-16T00:25:16.532Z,4.7
2022-11-16T00:26:15.874Z,4.7
2022-11-16T00:27:16.496Z,4.6
2022-11-16T00:28:16.784Z,4.6
2022-11-16T00:29:15.893Z,4
2022-11-16T00:30:15.852Z,4.6
2022-11-16T00:31:14.891Z,4.6
2022-11-16T00:32:15.302Z,4.7
2022-11-16T00:33:15.766Z,4.6
2022-11-16T00:34:15.963Z,4.6
2022-11-16T00:35:16.570Z,4.6
2022-11-16T00:36:16.121Z,4.7
2022-11-16T00:37:16.767Z,4.6
2022-11-16T00:38:16.066Z,4.7
2022-11-16T00:39:15.876Z,4.7
2022-11-16T00:40:16.293Z,4.6
2022-11-16T00:41:16.659Z,4.7
2022-11-16T00:42:16.049Z,4.7
2022-11-16T00:43:16.195Z,4.7
2022-11-16T00:44:16.565Z,4.7
2022-11-16T00:45:15.854Z,4.7
2022-11-16T00:46:16.189Z,4.7
2022-11-16T00:47:15.899Z,4.7
2022-11-16T00:48:16.307Z,4.7
2022-11-16T00:49:16.589Z,4.7
2022-11-16T00:50:15.871Z,4.7
2022-11-16T00:51:16.205Z,4.7
2022-11-16T00:52:15.777Z,4
2022-11-16T00:53:15.306Z,4.7
2022-11-16T00:54:16.590Z,4.7
2022-11-16T00:55:15.734Z,4.7
2022-11-16T00:56:16.221Z,4.7
2022-11-16T00:57:15.843Z,4.7
2022-11-16T00:58:16.099Z,4.7
2022-11-16T00:59:16.646Z,4.7
2022-11-16T01:00:16.316Z,4.7
2022-11-16T01:01:17.161Z,4.7
2022-11-16T01:02:16.096Z,4.7
2022-11-16T01:03:16.398Z,4.7
2022-11-16T01:04:16.079Z,4.7
2022-11-16T01:05:16.309Z,4.7
2022-11-16T01:06:15.939Z,4
2022-11-16T01:07:16.513Z,4
2022-11-16T01:08:16.595Z,4.8
2022-11-16T01:09:15.972Z,4
2022-11-16T01:10:16.259Z,4.7
2022-11-16T01:11:16.580Z,4
2022-11-16T01:12:15.907Z,4.8
2022-11-16T01:13:16.520Z,4.8
2022-11-16T01:14:15.131Z,4.8
2022-11-16T01:15:16.004Z,4.8
2022-11-16T01:16:15.082Z,4
2022-11-16T01:17:16.359Z,4.8
2022-11-16T01:18:16.601Z,4.8
2022-11-16T01:19:14.768Z,4.8
2022-11-16T01:20:16.709Z,4.8
2022-11-16T01:21:16.046Z,4.8
2022-11-16T01:22:16.040Z,4.8
2022-11-16T01:23:16.374Z,4.8
2022-11-16T01:24:16.135Z,4.8
2022-11-16T01:25:16.545Z,4.8
2022-11-16T01:26:16.688Z,4.8
2022-11-16T01:27:15.961Z,4.8
2022-11-16T01:28:15.909Z,4.8
2022-11-16T01:29:16.217Z,4.8
2022-11-16T01:30:16.774Z,4.8
2022-11-16T01:31:16.655Z,4.8
2022-11-16T01:32:16.219Z,4
2022-11-16T01:33:16.483Z,4.8
2022-11-16T01:34:15.049Z,4.8
2022-11-16T01:35:15.681Z,4
2022-11-16T01:36:15.816Z,4.8
2022-11-16T01:37:16.660Z,4.8
2022-11-16T01:38:16.452Z,4.8
2022-11-16T01:39:16.621Z,4
2022-11-16T01:40:16.527Z,4
2022-11-16T01:41:15.858Z,4.8
2022-11-16T01:42:16.233Z,4.8
2022-11-16T01:43:16.382Z,4.8
2022-11-16T01:44:16.493Z,4.8
2022-11-16T01:45:16.725Z,4.8
2022-11-16T01:46:16.448Z,4
2022-11-16T01:47:16.768Z,4.8
2022-11-16T01:48:16.220Z,4.8
2022-11-16T01:49:16.370Z,4.8
2022-11-16T01:50:16.790Z,4.8
2022-11-16T01:51:16.146Z,4.8
2022-11-16T01:52:15.889Z,4.8
2022-11-16T01:53:16.115Z,4
2022-11-16T01:54:16.594Z,4.8
2022-11-16T01:55:15.880Z,4.8
2022-11-16T01:56:16.001Z,4.8
2022-11-16T01:57:16.380Z,4.8
2022-11-16T01:58:15.701Z,4.8
2022-11-16T01:59:16.162Z,4
2022-11-16T02:00:16.523Z,4.8
2022-11-16T02:01:16.190Z,4.8
2022-11-16T02:02:14.836Z,4.8
2022-11-16T02:03:15.843Z,4
2022-11-16T02:04:16.579Z,4.8
2022-11-16T02:05:15.347Z,4.8
2022-11-16T02:06:16.459Z,4.8
2022-11-16T02:07:16.921Z,4.9
2022-11-16T02:08:16.061Z,4.9
2022-11-16T02:09:15.865Z,4.9
2022-11-16T02:10:16.108Z,4.9
2022-11-16T02:11:16.490Z,4.9
2022-11-16T02:12:16.179Z,4.9
2022-11-16T02:13:16.521Z,4.9
2022-11-16T02:14:16.037Z,4.9
2022-11-16T02:15:16.450Z,4.9
2022-11-16T02:16:16.257Z,4.9
2022-11-16T02:17:16.664Z,4.9
2022-11-16T02:18:16.041Z,4.9
2022-11-16T02:19:16.382Z,4.9
2022-11-16T02:20:15.844Z,4.9
2022-11-16T02:21:16.120Z,4.9
2022-11-16T02:22:16.482Z,4.9
2022-11-16T02:23:15.774Z,4.9
2022-11-16T02:24:16.145Z,4.9
2022-11-16T02:25:16.466Z,4.9
2022-11-16T02:26:15.843Z,4.9
2022-11-16T02:27:15.602Z,5
2022-11-16T02:28:15.612Z,4.9
2022-11-16T02:29:16.613Z,4.9
2022-11-16T02:30:16.449Z,4.9
2022-11-16T02:31:15.736Z,4.9
2022-11-16T02:32:16.545Z,4.9
2022-11-16T02:33:15.908Z,4.9
2022-11-16T02:34:16.748Z,4.9
2022-11-16T02:35:16.018Z,4.9
2022-11-16T02:36:16.139Z,4.9
2022-11-16T02:37:16.518Z,4.9
2022-11-16T02:38:16.588Z,4.9
2022-11-16T02:39:15.907Z,4.9
2022-11-16T02:40:16.623Z,4.9
2022-11-16T02:41:15.883Z,4.9
2022-11-16T02:42:16.382Z,4.9
2022-11-16T02:43:16.630Z,5
2022-11-16T02:44:16.298Z,4.9
2022-11-16T02:45:16.622Z,5
2022-11-16T02:46:16.418Z,4.9
2022-11-16T02:47:16.684Z,5
2022-11-16T02:48:15.997Z,4.9
2022-11-16T02:49:16.463Z,4.9
2022-11-16T02:50:15.141Z,4.9
2022-11-16T02:51:16.835Z,5
2022-11-16T02:52:15.163Z,5
2022-11-16T02:53:16.495Z,5
2022-11-16T02:54:15.706Z,5
2022-11-16T02:55:16.625Z,5
2022-11-16T02:56:16.021Z,5
2022-11-16T02:57:16.280Z,5
2022-11-16T02:58:16.140Z,5
2022-11-16T02:59:21.688Z,5
2022-11-16T03:00:16.688Z,5
2022-11-16T03:01:16.862Z,5
2022-11-16T03:02:16.642Z,5
2022-11-16T03:03:15.902Z,5
2022-11-16T03:04:15.970Z,5
2022-11-16T03:05:16.418Z,5
2022-11-16T03:06:16.773Z,5
2022-11-16T03:07:16.279Z,5
2022-11-16T03:08:16.748Z,5
2022-11-16T03:09:15.950Z,5
2022-11-16T03:10:15.919Z,5
2022-11-16T03:11:15.943Z,5
2022-11-16T03:12:16.264Z,5
2022-11-16T03:13:16.367Z,5
2022-11-16T03:14:15.807Z,5
2022-11-16T03:15:16.615Z,5
2022-11-16T03:16:16.582Z,5
2022-11-16T03:17:16.139Z,5
2022-11-16T03:18:16.207Z,5
2022-11-16T03:19:16.569Z,5
2022-11-16T03:20:16.099Z,5
2022-11-16T03:21:16.775Z,5
2022-11-16T03:22:16.234Z,5
2022-11-16T03:23:16.709Z,5
2022-11-16T03:24:15.904Z,5
2022-11-16T03:25:16.355Z,5
2022-11-16T03:26:16.620Z,5
2022-11-16T03:27:15.964Z,5
2022-11-16T03:28:16.546Z,5
2022-11-16T03:29:15.848Z,5
2022-11-16T03:30:18.160Z,5
2022-11-16T03:31:16.592Z,5
2022-11-16T03:32:15.854Z,5.1
2022-11-16T03:33:16.291Z,5.1
2022-11-16T03:34:16.627Z,5.1
2022-11-16T03:35:15.943Z,5.1
2022-11-16T03:36:16.084Z,5.1
2022-11-16T03:37:16.320Z,5.1
2022-11-16T03:38:15.656Z,5.1
2022-11-16T03:39:16.063Z,5.1
2022-11-16T03:40:16.325Z,5
2022-11-16T03:41:16.670Z,5.1
2022-11-16T03:42:16.726Z,5.1
2022-11-16T03:43:16.666Z,5
2022-11-16T03:44:16.519Z,5.1
2022-11-16T03:45:16.325Z,5.2
2022-11-16T03:46:16.033Z,5.1
2022-11-16T03:47:16.374Z,5.1
2022-11-16T03:48:16.664Z,5.1
2022-11-16T03:49:15.854Z,5.2
2022-11-16T03:50:16.171Z,5.2
2022-11-16T03:51:16.522Z,5.2
2022-11-16T03:52:16.289Z,5.2
2022-11-16T03:53:16.178Z,5.2
2022-11-16T03:54:16.472Z,5.2
2022-11-16T03:55:15.795Z,5.2
2022-11-16T03:56:16.363Z,5.2
2022-11-16T03:57:16.683Z,5.2
2022-11-16T03:58:16.033Z,5.2
2022-11-16T03:59:16.348Z,5.2
2022-11-16T04:00:16.295Z,5.1
2022-11-16T04:01:16.857Z,5
2022-11-16T04:02:16.428Z,5.2
2022-11-16T04:03:16.882Z,5.2
2022-11-16T04:04:15.329Z,5.2
2022-11-16T04:05:16.734Z,5.2
2022-11-16T04:06:16.058Z,5.2
2022-11-16T04:07:16.796Z,5
2022-11-16T04:08:16.161Z,5.2
2022-11-16T04:09:16.457Z,5
2022-11-16T04:10:16.564Z,5
2022-11-16T04:11:15.863Z,5.2
2022-11-16T04:12:16.145Z,5.2
2022-11-16T04:13:16.512Z,5.2
2022-11-16T04:14:15.944Z,5.2
2022-11-16T04:15:16.281Z,5.2
2022-11-16T04:16:16.581Z,5.2
2022-11-16T04:17:15.813Z,5.2
2022-11-16T04:18:16.077Z,5.2
2022-11-16T04:19:16.369Z,5.2
2022-11-16T04:20:15.798Z,5.2
2022-11-16T04:21:16.171Z,5.2
2022-11-16T04:22:16.202Z,5.2
2022-11-16T04:23:16.449Z,5.2
2022-11-16T04:24:15.835Z,5
2022-11-16T04:25:16.323Z,5.2
2022-11-16T04:26:16.563Z,5.2
2022-11-16T04:27:15.815Z,5.2
2022-11-16T04:28:16.270Z,5.2
2022-11-16T04:29:15.221Z,5.2
2022-11-16T04:30:16.767Z,5.2
2022-11-16T04:31:16.054Z,5.2
2022-11-16T04:32:16.461Z,5.2
2022-11-16T04:33:16.227Z,5.2
2022-11-16T04:34:16.651Z,5.2
2022-11-16T04:35:16.067Z,5.2
2022-11-16T04:36:22.866Z,5.2
2022-11-16T04:37:16.209Z,5.2
2022-11-16T04:38:15.908Z,5.2
2022-11-16T04:39:16.231Z,5.2
2022-11-16T04:40:15.888Z,5.2
2022-11-16T04:41:16.287Z,5.2
2022-11-16T04:42:16.600Z,5.2
2022-11-16T04:43:15.888Z,5.2
2022-11-16T04:44:16.238Z,5.2
2022-11-16T04:45:16.604Z,5.2
2022-11-16T04:46:16.717Z,5.2
2022-11-16T04:47:16.036Z,5.2
2022-11-16T04:48:16.333Z,5.2
2022-11-16T04:49:15.013Z,5.2
2022-11-16T04:50:16.394Z,5.2
2022-11-16T04:51:14.974Z,5
2022-11-16T04:52:16.277Z,5.2
2022-11-16T04:53:16.601Z,5.2
2022-11-16T04:54:15.767Z,5.2
2022-11-16T04:55:16.097Z,5.2
2022-11-16T04:56:16.711Z,5.2
2022-11-16T04:57:16.535Z,5.2
2022-11-16T04:58:15.888Z,5.2
2022-11-16T04:59:15.986Z,5.2
2022-11-16T05:00:16.327Z,5.2
2022-11-16T05:01:16.254Z,5.2
2022-11-16T05:02:16.319Z,5.2
2022-11-16T05:03:16.696Z,5.2
2022-11-16T05:04:15.984Z,5.2
2022-11-16T05:05:16.419Z,5.2
2022-11-16T05:06:15.819Z,5.2
2022-11-16T05:07:16.423Z,5.2
2022-11-16T05:08:16.385Z,5.2
2022-11-16T05:09:16.692Z,5.2
2022-11-16T05:10:16.018Z,5.2
2022-11-16T05:11:16.507Z,5.2
2022-11-16T05:12:16.818Z,5.3
2022-11-16T05:13:16.067Z,5.3
2022-11-16T05:14:16.447Z,5.3
2022-11-16T05:15:15.958Z,5.3
2022-11-16T05:16:15.611Z,5.3
2022-11-16T05:17:15.420Z,5.3
2022-11-16T05:18:16.738Z,5.3
2022-11-16T05:19:16.300Z,5.3
2022-11-16T05:20:16.579Z,5.3
2022-11-16T05:21:16.691Z,5.2
2022-11-16T05:22:16.328Z,5.3
2022-11-16T05:23:16.627Z,5.3
2022-11-16T05:24:16.027Z,5.3
2022-11-16T05:25:16.021Z,5.3
2022-11-16T05:26:16.383Z,5.3
2022-11-16T05:27:16.732Z,5.3
2022-11-16T05:28:16.080Z,5.3
2022-11-16T05:29:16.403Z,5.3
2022-11-16T05:30:16.729Z,5.3
2022-11-16T05:31:16.629Z,5.3
2022-11-16T05:32:15.993Z,5.3
2022-11-16T05:33:16.300Z,5.3
2022-11-16T05:34:16.598Z,5.2
2022-11-16T05:35:15.984Z,5.3
2022-11-16T05:36:16.310Z,5.3
2022-11-16T05:37:16.634Z,5.3
2022-11-16T05:38:16.001Z,5.3
2022-11-16T05:39:15.637Z,5.3
2022-11-16T05:40:15.703Z,5.3
2022-11-16T05:41:15.954Z,5.3
2022-11-16T05:42:16.319Z,5.3
2022-11-16T05:43:15.993Z,5.3
2022-11-16T05:44:14.875Z,5
2022-11-16T05:45:23.377Z,5.3
2022-11-16T05:46:16.583Z,5
2022-11-16T05:47:15.935Z,5
2022-11-16T05:48:16.403Z,5.3
2022-11-16T05:49:16.651Z,5.3
2022-11-16T05:50:16.073Z,5.3
2022-11-16T05:51:16.362Z,5.3
2022-11-16T05:52:16.741Z,5.4
2022-11-16T05:53:15.932Z,5.4
2022-11-16T05:54:16.322Z,5.4
2022-11-16T05:55:16.585Z,5.4
2022-11-16T05:56:16.101Z,5.4
2022-11-16T05:57:16.704Z,5.4
2022-11-16T05:58:16.097Z,5
2022-11-16T05:59:20.591Z,5
2022-11-16T06:00:16.793Z,5.4
2022-11-16T06:01:16.609Z,5
2022-11-16T06:02:16.121Z,5.4
2022-11-16T06:03:16.507Z,5.4
2022-11-16T06:04:23.144Z,5.3
2022-11-16T06:05:16.158Z,5.3
2022-11-16T06:06:16.118Z,5.3
2022-11-16T06:07:16.434Z,5.4
2022-11-16T06:08:15.958Z,5.4
2022-11-16T06:09:16.229Z,5
2022-11-16T06:10:15.817Z,5.4
2022-11-16T06:11:16.779Z,5.3
2022-11-16T06:12:16.085Z,5.4
2022-11-16T06:13:16.670Z,5.3
2022-11-16T06:14:16.023Z,5.4
2022-11-16T06:15:16.391Z,5.4
2022-11-16T06:16:17.146Z,5.3
2022-11-16T06:17:16.291Z,5.3
2022-11-16T06:18:16.517Z,5.4
2022-11-16T06:19:15.900Z,5.4
2022-11-16T06:20:16.327Z,5.3
2022-11-16T06:21:15.971Z,5.3
2022-11-16T06:22:16.156Z,5.4
2022-11-16T06:23:16.593Z,5.4
2022-11-16T06:24:15.965Z,5.3
2022-11-16T06:25:16.353Z,5.4
2022-11-16T06:26:16.700Z,5.4
2022-11-16T06:27:16.126Z,5.4
2022-11-16T06:28:16.503Z,5.4
2022-11-16T06:29:16.709Z,5.4
2022-11-16T06:30:16.511Z,5.3
2022-11-16T06:31:16.241Z,5.3
2022-11-16T06:32:17.754Z,5.4
2022-11-16T06:33:15.949Z,5.4
2022-11-16T06:34:16.553Z,5.3
2022-11-16T06:35:16.360Z,5.4
2022-11-16T06:36:16.850Z,5.4
2022-11-16T06:37:16.755Z,5.4
2022-11-16T06:38:16.100Z,5.4
2022-11-16T06:39:16.537Z,5.4
2022-11-16T06:40:16.781Z,5.4
2022-11-16T06:41:16.677Z,5.4
2022-11-16T06:42:16.003Z,5.4
2022-11-16T06:43:16.467Z,5.4
2022-11-16T06:44:15.862Z,5.4
2022-11-16T06:45:16.165Z,5.4
2022-11-16T06:46:16.592Z,5
2022-11-16T06:47:16.221Z,5.4
2022-11-16T06:48:17.449Z,5.4
2022-11-16T06:49:16.750Z,5.4
2022-11-16T06:50:16.187Z,5.4
2022-11-16T06:51:15.889Z,5.4
2022-11-16T06:52:15.744Z,5.4
2022-11-16T06:53:15.975Z,5.4
2022-11-16T06:54:16.253Z,5.4
2022-11-16T06:55:14.872Z,5.4
2022-11-16T06:56:16.226Z,5.4
2022-11-16T06:57:15.577Z,5.4
2022-11-16T06:58:16.211Z,5.4
2022-11-16T06:59:16.692Z,5.4
2022-11-16T07:00:15.920Z,5
2022-11-16T07:01:16.695Z,5
2022-11-16T07:02:16.695Z,5.4
2022-11-16T07:03:16.720Z,5.4
2022-11-16T07:04:16.762Z,5.4
2022-11-16T07:05:16.729Z,5.4
2022-11-16T07:06:15.943Z,5.4
2022-11-16T07:07:16.513Z,5.4
2022-11-16T07:08:16.694Z,5.4
2022-11-16T07:09:15.933Z,5
2022-11-16T07:10:16.275Z,5
2022-11-16T07:11:16.765Z,5.4
2022-11-16T07:12:16.139Z,5.4
2022-11-16T07:13:16.518Z,5.4
2022-11-16T07:14:15.913Z,5.4
2022-11-16T07:15:16.104Z,5.4
2022-11-16T07:16:16.316Z,5.4
2022-11-16T07:17:15.440Z,5.5
2022-11-16T07:18:16.806Z,5.4
2022-11-16T07:19:15.546Z,5.5
2022-11-16T07:20:17.082Z,5.5
2022-11-16T07:21:15.478Z,5.5
2022-11-16T07:22:16.572Z,5.5
2022-11-16T07:23:18.549Z,5.5
2022-11-16T07:24:16.228Z,5
2022-11-16T07:25:16.225Z,5
2022-11-16T07:26:16.729Z,5.5
2022-11-16T07:27:15.961Z,5.5
2022-11-16T07:28:16.322Z,5.5
2022-11-16T07:29:16.674Z,5.5
2022-11-16T07:30:16.015Z,5.5
2022-11-16T07:31:16.206Z,5.5
2022-11-16T07:32:16.495Z,5.5
2022-11-16T07:33:16.346Z,5.6
2022-11-16T07:34:16.641Z,5.5
2022-11-16T07:35:16.672Z,5.5
2022-11-16T07:36:16.574Z,5.6
2022-11-16T07:37:16.645Z,5.6
2022-11-16T07:38:22.010Z,5.6
2022-11-16T07:39:15.895Z,5.6
2022-11-16T07:40:16.201Z,5.6
2022-11-16T07:41:16.114Z,5.6
2022-11-16T07:42:16.887Z,5.6
2022-11-16T07:43:16.439Z,5.6
2022-11-16T07:44:16.811Z,5
2022-11-16T07:45:16.572Z,5
2022-11-16T07:46:49.279Z,5.6
2022-11-16T07:47:16.301Z,5.6
2022-11-16T07:48:16.711Z,5.6
2022-11-16T07:49:16.429Z,5.6
2022-11-16T07:50:16.606Z,5.6
2022-11-16T07:51:15.969Z,5.6
2022-11-16T07:52:16.397Z,5.6
2022-11-16T07:53:16.687Z,5.6
2022-11-16T07:54:16.070Z,5.6
2022-11-16T07:55:16.520Z,5.6
2022-11-16T07:56:15.784Z,5.6
2022-11-16T07:57:16.583Z,5.6
2022-11-16T07:58:15.946Z,5.6
2022-11-16T07:59:16.421Z,5.6
2022-11-16T08:00:16.708Z,5.7
2022-11-16T08:01:16.373Z,5.7
2022-11-16T08:02:16.839Z,5.7
2022-11-16T08:03:18.173Z,5.7
2022-11-16T08:04:16.187Z,5.7
2022-11-16T08:05:16.659Z,5.7
2022-11-16T08:06:16.110Z,5.7
2022-11-16T08:07:16.740Z,5.7
2022-11-16T08:08:16.947Z,5.7
2022-11-16T08:09:15.618Z,5.7
2022-11-16T08:10:16.979Z,5.7
2022-11-16T08:11:16.915Z,5.7
2022-11-16T08:12:16.225Z,5.7
2022-11-16T08:13:16.619Z,5.7
2022-11-16T08:14:16.121Z,5
2022-11-16T08:15:16.635Z,5.7
2022-11-16T08:16:16.337Z,5.7
2022-11-16T08:17:16.041Z,5.7
2022-11-16T08:18:16.359Z,5.7
2022-11-16T08:19:16.108Z,5.7
2022-11-16T08:20:16.473Z,5.7
2022-11-16T08:21:16.472Z,5.7
2022-11-16T08:22:16.704Z,5.7
2022-11-16T08:23:16.505Z,5.7
2022-11-16T08:24:16.924Z,5.8
2022-11-16T08:25:16.038Z,5.8
2022-11-16T08:26:16.549Z,5.8
2022-11-16T08:27:15.915Z,5.8
2022-11-16T08:28:16.147Z,5.8
2022-11-16T08:29:16.550Z,5.8
2022-11-16T08:30:15.206Z,5
2022-11-16T08:31:16.548Z,5.8
2022-11-16T08:32:16.835Z,5.8
2022-11-16T08:33:16.130Z,5.8
2022-11-16T08:34:14.957Z,5.8
2022-11-16T08:35:16.150Z,5.8
2022-11-16T08:36:18.589Z,5.9
2022-11-16T08:37:16.396Z,5.9
2022-11-16T08:38:16.571Z,5.9
2022-11-16T08:39:16.160Z,5.9
2022-11-16T08:40:16.655Z,5.9
2022-11-16T08:41:16.283Z,5.9
2022-11-16T08:42:16.454Z,5.9
2022-11-16T08:43:16.560Z,5.9
2022-11-16T08:44:17.304Z,5.9
2022-11-16T08:45:16.676Z,5.9
2022-11-16T08:46:16.724Z,6
2022-11-16T08:47:16.194Z,5.9
2022-11-16T08:48:16.412Z,5.9
2022-11-16T08:49:16.149Z,5.9
2022-11-16T08:50:16.509Z,5.9
2022-11-16T08:51:25.136Z,5.9
2022-11-16T08:52:16.168Z,6
2022-11-16T08:53:16.440Z,6
2022-11-16T08:54:16.088Z,6
2022-11-16T08:55:16.378Z,6
2022-11-16T08:56:16.542Z,6
2022-11-16T08:57:15.077Z,6
2022-11-16T08:58:16.690Z,6
2022-11-16T08:59:15.987Z,6
2022-11-16T09:00:16.261Z,6
2022-11-16T09:01:15.091Z,6
2022-11-16T09:02:17.059Z,5
2022-11-16T09:03:15.986Z,6
2022-11-16T09:04:16.199Z,6
2022-11-16T09:05:16.458Z,6
2022-11-16T09:06:16.852Z,6
2022-11-16T09:07:16.560Z,6
2022-11-16T09:08:16.721Z,6
2022-11-16T09:09:16.482Z,6
2022-11-16T09:10:15.828Z,6
2022-11-16T09:11:15.981Z,6
2022-11-16T09:12:16.676Z,6
2022-11-16T09:13:15.858Z,6
2022-11-16T09:14:16.273Z,6
2022-11-16T09:15:16.116Z,6
2022-11-16T09:16:16.258Z,6
2022-11-16T09:17:23.346Z,6.1
2022-11-16T09:18:15.898Z,6
2022-11-16T09:19:16.170Z,6.1
2022-11-16T09:20:15.400Z,6
2022-11-16T09:21:15.962Z,6
2022-11-16T09:22:16.239Z,6.1
2022-11-16T09:23:19.772Z,6.1
2022-11-16T09:24:15.979Z,6.1
2022-11-16T09:25:15.990Z,6.1
2022-11-16T09:26:16.455Z,6.1
2022-11-16T09:27:16.770Z,6.1
2022-11-16T09:28:16.546Z,6.1
2022-11-16T09:29:16.156Z,6
2022-11-16T09:30:16.492Z,6.1
2022-11-16T09:31:23.654Z,6.1
2022-11-16T09:32:16.554Z,6.2
2022-11-16T09:33:16.486Z,6.2
2022-11-16T09:34:16.799Z,6.1
2022-11-16T09:35:16.709Z,6.1
2022-11-16T09:36:16.052Z,6.2
2022-11-16T09:37:16.049Z,6.2
2022-11-16T09:38:40.110Z,6.2
2022-11-16T09:39:35.172Z,6.3
2022-11-16T09:40:16.057Z,6.2
2022-11-16T09:41:16.324Z,6.2
2022-11-16T09:42:16.617Z,6.2
2022-11-16T09:43:16.085Z,6.2
2022-11-16T09:44:16.028Z,6
2022-11-16T09:45:16.148Z,6.2
2022-11-16T09:46:15.142Z,6.3
2022-11-16T09:47:16.377Z,6.3
2022-11-16T09:48:16.770Z,6.3
2022-11-16T09:49:21.576Z,6.3
2022-11-16T09:50:16.785Z,6.3
2022-11-16T09:51:16.194Z,6
2022-11-16T09:52:16.455Z,6.3
2022-11-16T09:53:16.599Z,6.3
2022-11-16T09:54:16.704Z,6.3
2022-11-16T09:55:20.308Z,6.3
2022-11-16T09:56:22.896Z,6.3
2022-11-16T09:57:17.023Z,6.3
2022-11-16T09:58:16.463Z,6.3
2022-11-16T09:59:22.284Z,6.3
2022-11-16T10:00:16.483Z,6.4
2022-11-16T10:01:16.502Z,6.3
2022-11-16T10:02:16.546Z,6.4
2022-11-16T10:03:15.906Z,6.4
2022-11-16T10:04:16.231Z,6.4
2022-11-16T10:05:16.667Z,6.3
2022-11-16T10:06:15.751Z,6.4
2022-11-16T10:07:16.312Z,6.4
2022-11-16T10:08:15.333Z,6.3
2022-11-16T10:09:15.902Z,6.4
2022-11-16T10:10:16.757Z,6.4
2022-11-16T10:11:16.773Z,6.4
2022-11-16T10:12:16.006Z,6.4
2022-11-16T10:13:15.913Z,6.4
2022-11-16T10:14:16.219Z,6.4
2022-11-16T10:15:16.108Z,6.4
2022-11-16T10:16:16.850Z,6
2022-11-16T10:17:16.554Z,6
2022-11-16T10:18:16.299Z,6.4
2022-11-16T10:19:16.541Z,6.4
2022-11-16T10:20:16.708Z,6.4
2022-11-16T10:21:16.000Z,6.4
2022-11-16T10:22:16.387Z,6.4
2022-11-16T10:23:16.247Z,6.4
2022-11-16T10:24:16.531Z,6
2022-11-16T10:25:16.701Z,6.4
2022-11-16T10:26:16.127Z,6
2022-11-16T10:27:22.103Z,6
2022-11-16T10:28:16.026Z,6.4
2022-11-16T10:29:16.269Z,6.5
2022-11-16T10:30:16.489Z,6.5
2022-11-16T10:31:16.420Z,6.4
2022-11-16T10:32:16.270Z,6.5
2022-11-16T10:33:16.666Z,6.5
2022-11-16T10:34:16.838Z,6.5
2022-11-16T10:35:16.095Z,6.5
2022-11-16T10:36:16.510Z,6.5
2022-11-16T10:37:16.771Z,6.4
2022-11-16T10:38:16.003Z,6.5
2022-11-16T10:39:16.362Z,6.5
2022-11-16T10:40:16.644Z,6
2022-11-16T10:41:16.069Z,6.5
2022-11-16T10:42:16.258Z,6.5
2022-11-16T10:43:15.922Z,6.6
2022-11-16T10:44:16.043Z,6.6
2022-11-16T10:45:16.385Z,6.6
2022-11-16T10:46:16.650Z,6.6
2022-11-16T10:47:16.142Z,6.6
2022-11-16T10:48:16.920Z,6.6
2022-11-16T10:49:15.889Z,6.6
2022-11-16T10:50:16.239Z,6.7
2022-11-16T10:51:16.135Z,6.7
2022-11-16T10:52:16.551Z,6
2022-11-16T10:53:16.817Z,6
2022-11-16T10:54:16.164Z,6.6
2022-11-16T10:55:15.905Z,6.6
2022-11-16T10:56:16.400Z,6.6
2022-11-16T10:57:16.745Z,6.7
2022-11-16T10:58:15.998Z,6.7
2022-11-16T10:59:16.211Z,6.8
2022-11-16T11:00:24.098Z,6.7
2022-11-16T11:01:17.025Z,6.7
2022-11-16T11:02:16.199Z,6.8
2022-11-16T11:03:16.601Z,6.8
2022-11-16T11:04:16.874Z,6.8
2022-11-16T11:05:16.171Z,6.8
2022-11-16T11:06:16.020Z,6.8
2022-11-16T11:07:16.018Z,6.8
2022-11-16T11:08:16.532Z,6.8
2022-11-16T11:09:16.348Z,6.8
2022-11-16T11:10:16.224Z,6.9
2022-11-16T11:11:16.635Z,6.9
2022-11-16T11:12:15.975Z,6.9
2022-11-16T11:13:16.911Z,6.9
2022-11-16T11:14:16.259Z,6.9
2022-11-16T11:15:18.142Z,6.9
2022-11-16T11:16:16.834Z,6.9
2022-11-16T11:17:16.197Z,6.9
2022-11-16T11:18:16.467Z,7
2022-11-16T11:19:16.856Z,7
2022-11-16T11:20:17.066Z,7
2022-11-16T11:21:16.222Z,7
2022-11-16T11:22:16.662Z,7
2022-11-16T11:23:16.394Z,7
2022-11-16T11:24:47.834Z,7
2022-11-16T11:25:16.684Z,7
2022-11-16T11:26:16.039Z,7
2022-11-16T11:27:16.394Z,7.1
2022-11-16T11:28:16.714Z,6
2022-11-16T11:29:15.309Z,6
2022-11-16T11:30:16.832Z,7.2
2022-11-16T11:31:16.862Z,7.2
2022-11-16T11:32:22.604Z,7.2
2022-11-16T11:33:16.331Z,7.2
2022-11-16T11:34:16.634Z,7.2
2022-11-16T11:35:16.785Z,7.2
2022-11-16T11:36:16.628Z,7.2
2022-11-16T11:37:16.458Z,7.2
2022-11-16T11:38:16.865Z,7.2
2022-11-16T11:39:16.749Z,7.2
2022-11-16T11:40:15.922Z,7.2
2022-11-16T11:41:16.133Z,7.2
2022-11-16T11:42:16.528Z,7.2
2022-11-16T11:43:22.845Z,7.2
2022-11-16T11:44:16.308Z,7.2
2022-11-16T11:45:16.683Z,7.2
2022-11-16T11:46:15.957Z,7.2
2022-11-16T11:48:02.537Z,7.2
2022-11-16T11:49:16.769Z,7.2
2022-11-16T11:50:16.142Z,7.2
2022-11-16T11:51:16.596Z,7
2022-11-16T11:52:16.377Z,7.2
2022-11-16T11:53:16.613Z,7
2022-11-16T11:54:16.027Z,7
2022-11-16T11:55:16.300Z,7.2
2022-11-16T11:56:16.511Z,7.2
2022-11-16T11:57:16.703Z,7.2
2022-11-16T11:58:16.067Z,7.2
2022-11-16T11:59:16.641Z,7.2
2022-11-16T12:00:16.771Z,7.2
2022-11-16T12:01:19.500Z,7.2
2022-11-16T12:02:16.289Z,7.2
2022-11-16T12:03:16.788Z,7.2
2022-11-16T12:04:16.876Z,7.2
2022-11-16T12:05:16.273Z,7.2
2022-11-16T12:06:16.675Z,7.2
2022-11-16T12:07:16.517Z,7.3
2022-11-16T12:08:16.802Z,7.3
2022-11-16T12:09:16.024Z,7.3
2022-11-16T12:10:16.342Z,7.3
2022-11-16T12:11:16.268Z,7.3
2022-11-16T12:12:19.102Z,7.3
2022-11-16T12:13:16.884Z,7.3
2022-11-16T12:14:16.265Z,7.4
2022-11-16T12:15:16.532Z,7.3
2022-11-16T12:16:16.191Z,7.3
2022-11-16T12:17:16.202Z,7.3
2022-11-16T12:18:15.685Z,7.4
2022-11-16T12:19:16.438Z,7.4
2022-11-16T12:20:16.691Z,7.4
2022-11-16T12:21:16.386Z,7.4
2022-11-16T12:22:16.493Z,7
2022-11-16T12:23:16.111Z,7.4
2022-11-16T12:24:16.658Z,7.4
2022-11-16T12:25:16.687Z,7.4
2022-11-16T12:26:15.977Z,7.5
2022-11-16T12:27:16.110Z,7.5
2022-11-16T12:28:15.887Z,7.5
2022-11-16T12:29:16.739Z,7.4
2022-11-16T12:30:16.135Z,7.5
2022-11-16T12:31:16.252Z,7
2022-11-16T12:32:16.676Z,7.5
2022-11-16T12:33:15.942Z,7.5
2022-11-16T12:34:16.295Z,7.5
2022-11-16T12:35:16.780Z,7.5
2022-11-16T12:36:15.985Z,7.5
2022-11-16T12:37:16.308Z,7.6
2022-11-16T12:38:17.821Z,7.6
2022-11-16T12:39:16.297Z,7.6
2022-11-16T12:40:15.446Z,7.6
2022-11-16T12:41:15.279Z,7
2022-11-16T12:42:16.713Z,7.6
2022-11-16T12:43:16.390Z,7.6
2022-11-16T12:44:16.931Z,7.6
2022-11-16T12:45:16.952Z,7.6
2022-11-16T12:46:16.243Z,7.6
2022-11-16T12:47:16.220Z,7.6
2022-11-16T12:48:16.626Z,7.6
2022-11-16T12:49:16.135Z,7.6
2022-11-16T12:50:16.718Z,7.6
2022-11-16T12:51:16.189Z,7.6
2022-11-16T12:52:16.866Z,7.6
2022-11-16T12:53:16.240Z,7.6
2022-11-16T12:54:16.578Z,7.6
2022-11-16T12:55:30.994Z,7.6
2022-11-16T12:56:16.225Z,7.6
2022-11-16T12:57:16.472Z,7.7
2022-11-16T12:58:16.750Z,7.7
2022-11-16T12:59:16.503Z,7.6
2022-11-16T13:00:16.628Z,7.6
2022-11-16T13:01:17.069Z,7
2022-11-16T13:02:16.120Z,7.6
2022-11-16T13:03:16.606Z,7.6
2022-11-16T13:04:15.521Z,7
2022-11-16T13:05:15.025Z,7.6
2022-11-16T13:06:16.058Z,7.6
2022-11-16T13:07:17.130Z,7.7
2022-11-16T13:08:16.864Z,7.7
2022-11-16T13:09:16.670Z,7.7
2022-11-16T13:10:16.495Z,7.7
2022-11-16T13:11:16.669Z,7.7
2022-11-16T13:12:16.777Z,7.7
2022-11-16T13:13:53.560Z,7
2022-11-16T13:14:16.634Z,7
2022-11-16T13:15:16.549Z,7
2022-11-16T13:16:16.821Z,7.7
2022-11-16T13:17:16.561Z,7.7
2022-11-16T13:18:16.939Z,7.7
2022-11-16T13:19:16.642Z,7.7
2022-11-16T13:20:19.327Z,7.7
2022-11-16T13:21:16.421Z,7.7
2022-11-16T13:22:16.802Z,7.7
2022-11-16T13:23:16.829Z,7.7
2022-11-16T13:24:16.195Z,7.7
2022-11-16T13:25:15.998Z,7.7
2022-11-16T13:26:15.478Z,7.7
2022-11-16T13:27:16.299Z,7.7
2022-11-16T13:28:16.329Z,7.7
2022-11-16T13:29:16.122Z,7.8
2022-11-16T13:30:16.877Z,7.7
2022-11-16T13:31:16.107Z,7.7
2022-11-16T13:32:16.565Z,7.7
2022-11-16T13:33:16.821Z,7.8
2022-11-16T13:34:16.509Z,7.7
2022-11-16T13:35:16.374Z,7.8
2022-11-16T13:36:16.451Z,7.8
2022-11-16T13:37:16.395Z,7.7
2022-11-16T13:38:16.742Z,7.7
2022-11-16T13:39:24.710Z,7.7
2022-11-16T13:40:15.922Z,7.8
2022-11-16T13:41:16.983Z,7.8
2022-11-16T13:42:16.229Z,7.8
2022-11-16T13:43:16.713Z,7.8
2022-11-16T13:44:16.871Z,7.8
2022-11-16T13:45:16.173Z,7.8
2022-11-16T13:46:58.174Z,7.8
2022-11-16T13:47:16.361Z,7.8
2022-11-16T13:48:16.673Z,8
2022-11-16T13:49:15.368Z,8
2022-11-16T13:50:16.943Z,7.8
2022-11-16T13:51:16.438Z,7.9
2022-11-16T13:54:44.310Z,7.9
2022-11-16T13:54:49.724Z,8
2022-11-16T13:56:16.214Z,7.9
2022-11-16T13:57:16.572Z,8
2022-11-16T13:58:15.186Z,8
2022-11-16T13:59:16.747Z,8
2022-11-16T14:00:16.933Z,8
2022-11-16T14:01:16.508Z,8